Time;durP1;ratioP1;P1;durP2;ratioP2;P2;SDS_P1;SDS_P2;PMS_P1;PMS_P2;Temp;Humidity;BMP_temperature;BMP_pressure;BME280_temperature;BME280_humidity;BME280_pressure;Samples;Min_cycle;Max_cycle;Signal;HPM_P1;HPM_P2
2021/06/23 00:00:40;;;;;;;18.38;2.40;;;;;;;;;;4976081;28;20379;-67
2021/06/23 00:03:06;;;;;;;19.40;3.45;;;;;;;;;;4986156;28;20047;-68
2021/06/23 00:05:32;;;;;;;8.82;1.90;;;;;;;;;;4976631;28;20096;-67
2021/06/23 00:07:58;;;;;;;22.20;2.80;;;;;;;;;;4984847;28;20023;-68
2021/06/23 00:10:24;;;;;;;8.07;1.80;;;;;;;;;;4979463;28;20026;-67
2021/06/23 00:12:50;;;;;;;12.70;2.78;;;;;;;;;;4984616;28;20114;-67
2021/06/23 00:15:17;;;;;;;11.68;2.00;;;;;;;;;;4989525;28;20026;-67
2021/06/23 00:17:44;;;;;;;16.60;3.50;;;;;;;;;;4980208;28;20539;-68
2021/06/23 00:20:10;;;;;;;13.48;2.40;;;;;;;;;;4981888;28;20033;-68
2021/06/23 00:22:36;;;;;;;11.80;2.03;;;;;;;;;;4984310;28;20027;-67
2021/06/23 00:25:03;;;;;;;9.85;2.22;;;;;;;;;;4985862;28;20144;-68
2021/06/23 00:27:29;;;;;;;12.52;2.35;;;;;;;;;;4985525;28;20061;-68
2021/06/23 00:29:55;;;;;;;12.07;2.20;;;;;;;;;;4983994;28;20030;-68
2021/06/23 00:32:21;;;;;;;14.65;2.75;;;;;;;;;;4981959;28;20535;-67
2021/06/23 00:34:48;;;;;;;13.45;2.25;;;;;;;;;;4986196;28;20023;-67
2021/06/23 00:37:14;;;;;;;9.95;2.05;;;;;;;;;;4981608;28;20047;-68
2021/06/23 00:39:40;;;;;;;15.27;2.33;;;;;;;;;;4982755;28;20466;-68
2021/06/23 00:42:08;;;;;;;12.98;2.42;;;;;;;;;;4981643;28;20026;-69
2021/06/23 00:44:34;;;;;;;10.45;2.35;;;;;;;;;;4986153;28;20065;-68
2021/06/23 00:47:00;;;;;;;13.18;2.30;;;;;;;;;;4988724;28;20096;-68
2021/06/23 00:49:31;;;;;;;12.07;2.72;;;;;;;;;;4980075;28;20107;-68
2021/06/23 00:51:57;;;;;;;15.88;2.25;;;;;;;;;;4986149;28;20057;-68
2021/06/23 00:54:23;;;;;;;14.38;2.88;;;;;;;;;;4980175;28;20098;-67
2021/06/23 00:56:49;;;;;;;12.20;2.17;;;;;;;;;;4975658;28;20023;-67
2021/06/23 00:59:16;;;;;;;11.82;2.58;;;;;;;;;;4983719;28;20033;-67
2021/06/23 01:01:43;;;;;;;11.70;2.17;;;;;;;;;;4981177;28;20045;-67
2021/06/23 01:04:09;;;;;;;11.43;2.25;;;;;;;;;;4978587;28;20027;-67
2021/06/23 01:06:36;;;;;;;15.93;3.20;;;;;;;;;;4980586;28;20049;-67
2021/06/23 01:09:02;;;;;;;12.10;3.15;;;;;;;;;;4992187;28;20092;-67
2021/06/23 01:11:29;;;;;;;19.83;2.63;;;;;;;;;;4979366;28;20037;-67
2021/06/23 01:14:05;;;;;;;12.25;2.60;;;;;;;;;;4982307;28;20515;-68
2021/06/23 01:16:33;;;;;;;12.77;2.33;;;;;;;;;;4978657;28;20097;-67
2021/06/23 01:19:00;;;;;;;12.82;2.70;;;;;;;;;;4985147;28;20039;-67
2021/06/23 01:21:29;;;;;;;12.10;2.75;;;;;;;;;;4979851;28;20031;-67
2021/06/23 01:23:55;;;;;;;18.92;2.10;;;;;;;;;;4977739;28;20142;-67
2021/06/23 01:26:22;;;;;;;16.50;2.97;;;;;;;;;;4978057;28;20529;-67
2021/06/23 01:28:48;;;;;;;17.90;3.05;;;;;;;;;;4973858;28;20042;-67
2021/06/23 01:31:18;;;;;;;16.05;4.15;;;;;;;;;;4985994;28;20035;-68
2021/06/23 01:33:45;;;;;;;11.15;2.33;;;;;;;;;;4985910;28;20108;-67
2021/06/23 01:36:11;;;;;;;8.30;2.03;;;;;;;;;;4979650;28;20045;-68
2021/06/23 01:38:37;;;;;;;12.95;2.53;;;;;;;;;;5020955;28;20481;-68
2021/06/23 01:41:03;;;;;;;10.82;2.55;;;;;;;;;;4978429;28;20034;-67
2021/06/23 01:43:29;;;;;;;11.50;3.08;;;;;;;;;;4982394;28;20030;-68
2021/06/23 01:45:55;;;;;;;10.95;2.25;;;;;;;;;;4978826;28;20018;-68
2021/06/23 01:48:22;;;;;;;11.73;2.78;;;;;;;;;;4988916;28;20033;-68
2021/06/23 01:50:55;;;;;;;12.43;2.53;;;;;;;;;;4984316;28;20026;-70
2021/06/23 01:53:22;;;;;;;12.38;2.22;;;;;;;;;;4977212;28;20031;-66
2021/06/23 01:55:49;;;;;;;15.80;2.47;;;;;;;;;;4977335;28;20029;-67
2021/06/23 01:58:15;;;;;;;12.55;2.25;;;;;;;;;;4981128;28;20038;-67
2021/06/23 02:00:47;;;;;;;11.98;2.60;;;;;;;;;;4979096;28;20027;-67
2021/06/23 02:03:29;;;;;;;10.00;3.25;;;;;;;;;;4979977;28;20609;-67
2021/06/23 02:06:05;;;;;;;12.75;2.50;;;;;;;;;;4981085;28;20049;-69
2021/06/23 02:08:37;;;;;;;17.45;2.53;;;;;;;;;;4974789;28;20108;-67
2021/06/23 02:11:10;;;;;;;11.73;2.10;;;;;;;;;;4973390;28;20030;-69
2021/06/23 02:13:55;;;;;;;10.15;2.17;;;;;;;;;;4975438;28;20027;-68
2021/06/23 02:16:24;;;;;;;9.85;2.40;;;;;;;;;;4981487;28;20084;-68
2021/06/23 02:18:50;;;;;;;13.48;2.50;;;;;;;;;;4983241;28;20690;-67
2021/06/23 02:21:16;;;;;;;16.30;3.08;;;;;;;;;;4985034;28;20023;-68
2021/06/23 02:23:44;;;;;;;10.68;2.15;;;;;;;;;;4985623;28;20035;-67
2021/06/23 02:26:10;;;;;;;16.17;2.83;;;;;;;;;;4982442;28;20084;-66
2021/06/23 02:28:36;;;;;;;11.13;2.55;;;;;;;;;;4980164;28;20034;-67
2021/06/23 02:31:03;;;;;;;12.10;2.72;;;;;;;;;;4978679;28;20034;-68
2021/06/23 02:33:30;;;;;;;15.20;2.60;;;;;;;;;;4979592;28;20026;-68
2021/06/23 02:35:56;;;;;;;10.82;2.38;;;;;;;;;;4995292;28;20042;-68
2021/06/23 02:38:26;;;;;;;11.75;2.95;;;;;;;;;;4981661;28;20370;-68
2021/06/23 02:40:53;;;;;;;13.80;3.00;;;;;;;;;;4985916;28;20639;-67
2021/06/23 02:43:19;;;;;;;12.82;2.72;;;;;;;;;;4985539;28;20397;-69
2021/06/23 02:45:46;;;;;;;13.60;2.47;;;;;;;;;;4981569;28;20025;-68
2021/06/23 02:48:12;;;;;;;10.82;2.78;;;;;;;;;;4997348;28;20025;-68
2021/06/23 02:50:45;;;;;;;16.98;2.75;;;;;;;;;;4979223;28;20930;-68
2021/06/23 02:53:11;;;;;;;8.30;3.10;;;;;;;;;;4978349;28;20101;-68
2021/06/23 02:55:37;;;;;;;13.60;2.47;;;;;;;;;;4984470;28;20029;-69
2021/06/23 02:58:03;;;;;;;17.92;2.67;;;;;;;;;;4986221;28;20485;-69
2021/06/23 03:00:30;;;;;;;14.20;2.45;;;;;;;;;;4986114;28;20083;-69
2021/06/23 03:02:56;;;;;;;9.98;2.38;;;;;;;;;;4988571;28;20121;-68
2021/06/23 03:05:22;;;;;;;13.85;2.30;;;;;;;;;;4982742;28;20038;-69
2021/06/23 03:07:50;;;;;;;9.75;2.97;;;;;;;;;;4984126;28;20101;-68
2021/06/23 03:10:16;;;;;;;11.68;2.65;;;;;;;;;;4980308;28;20496;-68
2021/06/23 03:12:42;;;;;;;12.75;2.75;;;;;;;;;;4982702;28;20042;-68
2021/06/23 03:15:08;;;;;;;8.57;2.95;;;;;;;;;;4993127;28;20026;-68
2021/06/23 03:17:34;;;;;;;13.85;2.78;;;;;;;;;;4988931;28;20065;-68
2021/06/23 03:20:07;;;;;;;7.45;2.13;;;;;;;;;;4982240;28;20022;-68
2021/06/23 03:22:33;;;;;;;11.48;2.92;;;;;;;;;;4982855;28;20489;-69
2021/06/23 03:24:59;;;;;;;16.50;3.40;;;;;;;;;;4981267;28;20666;-68
2021/06/23 03:27:25;;;;;;;15.63;3.85;;;;;;;;;;4982166;28;20034;-68
2021/06/23 03:29:51;;;;;;;16.23;2.83;;;;;;;;;;4976440;28;20034;-68
2021/06/23 03:32:17;;;;;;;8.90;2.72;;;;;;;;;;4985275;28;20037;-68
2021/06/23 03:34:43;;;;;;;16.17;3.83;;;;;;;;;;4984953;28;20027;-69
2021/06/23 03:37:10;;;;;;;11.48;2.97;;;;;;;;;;4987406;28;20043;-68
2021/06/23 03:39:36;;;;;;;19.45;3.63;;;;;;;;;;4982068;28;20027;-69
2021/06/23 03:42:02;;;;;;;16.30;3.50;;;;;;;;;;4983182;28;20050;-70
2021/06/23 03:44:28;;;;;;;15.55;3.13;;;;;;;;;;4979764;28;20030;-68
2021/06/23 03:46:55;;;;;;;13.52;2.90;;;;;;;;;;4984604;28;20489;-69
2021/06/23 03:49:21;;;;;;;13.07;3.13;;;;;;;;;;4981457;28;20457;-69
2021/06/23 03:51:48;;;;;;;17.67;2.88;;;;;;;;;;4981242;28;20023;-69
2021/06/23 03:54:14;;;;;;;16.40;3.50;;;;;;;;;;4984399;28;20038;-68
2021/06/23 03:56:40;;;;;;;14.98;3.25;;;;;;;;;;4987229;28;20019;-68
2021/06/23 03:59:06;;;;;;;16.25;3.15;;;;;;;;;;4981168;28;20026;-70
2021/06/23 04:01:32;;;;;;;14.32;3.10;;;;;;;;;;4975155;28;20027;-69
2021/06/23 04:03:58;;;;;;;13.95;3.35;;;;;;;;;;4993852;28;20034;-70
2021/06/23 04:06:24;;;;;;;13.30;2.80;;;;;;;;;;4994775;28;20030;-74
2021/06/23 04:08:50;;;;;;;11.82;2.70;;;;;;;;;;4977833;28;20015;-70
2021/06/23 04:11:16;;;;;;;12.13;2.92;;;;;;;;;;4980350;28;20039;-73
2021/06/23 04:13:42;;;;;;;14.90;3.13;;;;;;;;;;4984603;28;20019;-69
2021/06/23 04:16:08;;;;;;;17.20;3.92;;;;;;;;;;4978258;28;20037;-70
2021/06/23 04:18:34;;;;;;;14.48;3.05;;;;;;;;;;4986908;28;20034;-70
2021/06/23 04:21:01;;;;;;;14.05;3.53;;;;;;;;;;4985333;28;20031;-71
2021/06/23 04:23:27;;;;;;;10.82;3.42;;;;;;;;;;4975751;28;20076;-69
2021/06/23 04:25:53;;;;;;;12.93;2.67;;;;;;;;;;4979074;28;20030;-71
2021/06/23 04:28:19;;;;;;;12.48;3.72;;;;;;;;;;4981933;28;20048;-70
2021/06/23 04:30:45;;;;;;;15.48;2.90;;;;;;;;;;4984509;28;20034;-71
2021/06/23 04:33:11;;;;;;;10.77;3.33;;;;;;;;;;4976610;28;20023;-70
2021/06/23 04:35:37;;;;;;;14.25;3.60;;;;;;;;;;4977804;28;20076;-70
2021/06/23 04:38:03;;;;;;;13.30;2.72;;;;;;;;;;4984715;28;20072;-70
2021/06/23 04:40:29;;;;;;;17.48;3.50;;;;;;;;;;4974191;28;20088;-69
2021/06/23 04:42:56;;;;;;;10.48;2.55;;;;;;;;;;4989505;28;20026;-70
2021/06/23 04:45:22;;;;;;;11.55;2.90;;;;;;;;;;4987262;28;20057;-69
2021/06/23 04:47:48;;;;;;;11.02;3.05;;;;;;;;;;4984858;28;20037;-70
2021/06/23 04:50:14;;;;;;;12.95;3.33;;;;;;;;;;4982297;28;20042;-70
2021/06/23 04:52:40;;;;;;;9.85;3.83;;;;;;;;;;4990566;28;20084;-69
2021/06/23 04:55:07;;;;;;;13.80;2.85;;;;;;;;;;4984730;28;20030;-71
2021/06/23 04:57:34;;;;;;;13.32;2.67;;;;;;;;;;4982019;28;20035;-71
2021/06/23 05:00:00;;;;;;;10.60;2.80;;;;;;;;;;4980087;28;20068;-70
2021/06/23 05:02:26;;;;;;;11.45;2.63;;;;;;;;;;4981824;28;20026;-70
2021/06/23 05:04:52;;;;;;;9.27;2.67;;;;;;;;;;4981439;28;20037;-70
2021/06/23 05:07:18;;;;;;;13.30;2.90;;;;;;;;;;4980352;28;20059;-70
2021/06/23 05:09:45;;;;;;;12.10;2.72;;;;;;;;;;4983980;28;20080;-70
2021/06/23 05:12:11;;;;;;;10.85;2.72;;;;;;;;;;4980841;28;20085;-70
2021/06/23 05:14:38;;;;;;;11.25;2.40;;;;;;;;;;4986703;28;20034;-69
2021/06/23 05:17:04;;;;;;;10.88;2.85;;;;;;;;;;4982749;28;20527;-74
2021/06/23 05:19:31;;;;;;;10.23;2.33;;;;;;;;;;4977297;28;20228;-72
2021/06/23 05:22:00;;;;;;;16.30;3.22;;;;;;;;;;4981972;28;20590;-70
2021/06/23 05:24:26;;;;;;;15.73;3.10;;;;;;;;;;4972845;28;20173;-70
2021/06/23 05:26:53;;;;;;;10.40;2.92;;;;;;;;;;4987523;28;20075;-70
2021/06/23 05:29:19;;;;;;;11.57;2.83;;;;;;;;;;4984109;28;20030;-70
2021/06/23 05:31:45;;;;;;;9.73;2.47;;;;;;;;;;4983973;28;20026;-70
2021/06/23 05:34:12;;;;;;;11.00;3.72;;;;;;;;;;4987301;28;20034;-71
2021/06/23 05:36:38;;;;;;;11.60;3.10;;;;;;;;;;4999073;28;20546;-70
2021/06/23 05:39:04;;;;;;;11.05;2.60;;;;;;;;;;4987149;28;20035;-70
2021/06/23 05:41:30;;;;;;;9.20;2.70;;;;;;;;;;4990478;28;20034;-71
2021/06/23 05:43:56;;;;;;;10.23;2.75;;;;;;;;;;4983448;28;20026;-71
2021/06/23 05:46:22;;;;;;;10.55;2.97;;;;;;;;;;4996791;28;20046;-70
2021/06/23 05:48:48;;;;;;;6.95;2.30;;;;;;;;;;4983307;28;20652;-70
2021/06/23 05:51:14;;;;;;;11.95;2.78;;;;;;;;;;4985258;28;20030;-71
2021/06/23 05:53:40;;;;;;;11.60;2.95;;;;;;;;;;4996680;28;20014;-71
2021/06/23 05:56:06;;;;;;;14.40;2.97;;;;;;;;;;4982527;28;20382;-71
2021/06/23 05:58:32;;;;;;;9.95;2.47;;;;;;;;;;4983268;28;20485;-70
2021/06/23 06:01:00;;;;;;;17.10;3.38;;;;;;;;;;4978031;28;20629;-71
2021/06/23 06:03:26;;;;;;;13.23;4.25;;;;;;;;;;4987789;28;20022;-71
2021/06/23 06:05:52;;;;;;;17.42;2.47;;;;;;;;;;4986446;28;20712;-70
2021/06/23 06:08:18;;;;;;;8.98;2.53;;;;;;;;;;4981897;28;20626;-71
2021/06/23 06:10:44;;;;;;;8.43;2.63;;;;;;;;;;4980841;28;20027;-70
2021/06/23 06:13:10;;;;;;;15.25;4.45;;;;;;;;;;4976626;28;20038;-71
2021/06/23 06:15:36;;;;;;;11.43;3.60;;;;;;;;;;4999405;28;20058;-71
2021/06/23 06:18:03;;;;;;;12.50;2.83;;;;;;;;;;5012861;28;20012;-72
2021/06/23 06:20:30;;;;;;;14.35;2.65;;;;;;;;;;5005827;28;20027;-71
2021/06/23 06:22:56;;;;;;;15.98;2.70;;;;;;;;;;4985365;28;20361;-71
2021/06/23 06:25:22;;;;;;;10.52;2.88;;;;;;;;;;4988185;28;20401;-71
2021/06/23 06:27:48;;;;;;;20.00;3.22;;;;;;;;;;4987786;28;20076;-71
2021/06/23 06:30:14;;;;;;;10.93;3.20;;;;;;;;;;4980761;28;20019;-71
2021/06/23 06:32:40;;;;;;;12.15;3.22;;;;;;;;;;4989642;28;20079;-71
2021/06/23 06:35:06;;;;;;;12.25;3.00;;;;;;;;;;5003274;28;20028;-72
2021/06/23 06:37:32;;;;;;;12.15;2.95;;;;;;;;;;4989628;28;20080;-71
2021/06/23 06:39:59;;;;;;;12.95;3.40;;;;;;;;;;4989058;28;20034;-71
2021/06/23 06:42:25;;;;;;;16.48;3.45;;;;;;;;;;4988809;28;20025;-71
2021/06/23 06:44:52;;;;;;;11.38;2.63;;;;;;;;;;4984550;28;20092;-71
2021/06/23 06:47:18;;;;;;;12.32;2.83;;;;;;;;;;4987189;28;20031;-71
2021/06/23 06:49:44;;;;;;;9.32;2.67;;;;;;;;;;4974683;28;20401;-71
2021/06/23 06:52:10;;;;;;;9.52;3.42;;;;;;;;;;4984643;28;20113;-71
2021/06/23 06:54:37;;;;;;;12.07;2.63;;;;;;;;;;4986533;28;20054;-70
2021/06/23 06:57:03;;;;;;;18.60;3.72;;;;;;;;;;4986909;28;20015;-71
2021/06/23 06:59:30;;;;;;;14.32;3.47;;;;;;;;;;4987285;28;20279;-71
2021/06/23 07:01:56;;;;;;;13.50;3.05;;;;;;;;;;4979345;28;20469;-71
2021/06/23 07:04:22;;;;;;;14.60;2.95;;;;;;;;;;4978456;28;20417;-71
2021/06/23 07:06:49;;;;;;;10.10;3.28;;;;;;;;;;4980682;28;20083;-71
2021/06/23 07:09:16;;;;;;;14.93;2.88;;;;;;;;;;4996034;28;20027;-71
2021/06/23 07:11:42;;;;;;;12.07;2.95;;;;;;;;;;4986596;28;20042;-71
2021/06/23 07:14:08;;;;;;;11.18;2.85;;;;;;;;;;4980965;28;20083;-71
2021/06/23 07:16:34;;;;;;;14.02;3.25;;;;;;;;;;4982848;28;20039;-71
2021/06/23 07:19:00;;;;;;;15.75;3.15;;;;;;;;;;4983430;28;20031;-71
2021/06/23 07:21:27;;;;;;;15.57;3.17;;;;;;;;;;4984446;28;20065;-71
2021/06/23 07:23:54;;;;;;;13.38;2.97;;;;;;;;;;4987492;28;20022;-71
2021/06/23 07:26:20;;;;;;;9.13;2.88;;;;;;;;;;4984738;28;20088;-71
2021/06/23 07:28:53;;;;;;;10.57;2.92;;;;;;;;;;4983556;28;20035;-71
2021/06/23 07:36:40;;;;;;;14.63;2.80;;;;;;;;;;4987507;28;20054;-71
2021/06/23 07:39:08;;;;;;;14.63;2.70;;;;;;;;;;4985501;28;20026;-71
2021/06/23 07:41:35;;;;;;;13.13;2.58;;;;;;;;;;4984659;28;20027;-71
2021/06/23 07:44:01;;;;;;;10.70;2.08;;;;;;;;;;4987327;28;20073;-70
2021/06/23 07:46:30;;;;;;;7.47;2.67;;;;;;;;;;4989371;28;20434;-70
2021/06/23 07:48:57;;;;;;;11.98;3.53;;;;;;;;;;5026888;28;20111;-70
2021/06/23 07:51:39;;;;;;;12.43;2.58;;;;;;;;;;5035653;28;20039;-70
2021/06/23 08:09:42;;;;;;;10.93;3.08;;;;;;;;;;4967732;28;20441;-70
2021/06/23 08:14:37;;;;;;;12.20;2.63;;;;;;;;;;5003288;28;20024;-71
2021/06/23 08:17:03;;;;;;;11.60;2.30;;;;;;;;;;5071333;28;20028;-70
2021/06/23 08:19:29;;;;;;;11.63;3.22;;;;;;;;;;5081862;28;20012;-69
2021/06/23 08:21:55;;;;;;;11.70;2.80;;;;;;;;;;5028606;28;20473;-69
2021/06/23 08:24:21;;;;;;;12.27;3.30;;;;;;;;;;5016279;28;20045;-69
2021/06/23 08:26:47;;;;;;;12.38;2.67;;;;;;;;;;5068344;28;20053;-70
2021/06/23 08:29:13;;;;;;;12.48;2.45;;;;;;;;;;4988422;28;20031;-69
2021/06/23 08:31:39;;;;;;;16.17;3.05;;;;;;;;;;4991704;28;20022;-70
2021/06/23 08:34:06;;;;;;;9.18;2.10;;;;;;;;;;4988156;28;20111;-68
2021/06/23 08:36:32;;;;;;;12.68;3.00;;;;;;;;;;4987555;28;20042;-69
2021/06/23 08:38:58;;;;;;;9.43;1.80;;;;;;;;;;5016592;28;20028;-68
2021/06/23 08:41:26;;;;;;;10.18;2.40;;;;;;;;;;5034657;28;20103;-69
2021/06/23 08:43:53;;;;;;;10.63;2.30;;;;;;;;;;5051337;28;20047;-69
2021/06/23 08:46:19;;;;;;;10.45;2.95;;;;;;;;;;5028204;28;20117;-68
2021/06/23 08:48:45;;;;;;;12.27;2.42;;;;;;;;;;4989785;28;20128;-68
2021/06/23 08:51:11;;;;;;;8.60;2.33;;;;;;;;;;5080571;28;20042;-68
2021/06/23 08:53:37;;;;;;;6.93;1.88;;;;;;;;;;5091780;28;20020;-68
2021/06/23 08:56:05;;;;;;;11.02;2.38;;;;;;;;;;5029775;28;20037;-68
2021/06/23 08:58:31;;;;;;;8.55;2.25;;;;;;;;;;4983018;28;20027;-69
2021/06/23 09:00:58;;;;;;;10.15;2.83;;;;;;;;;;4999681;28;20022;-69
2021/06/23 09:03:24;;;;;;;6.65;2.10;;;;;;;;;;4988942;28;20302;-69
2021/06/23 09:05:50;;;;;;;9.85;2.35;;;;;;;;;;4989172;28;20063;-69
2021/06/23 09:08:28;;;;;;;11.73;2.30;;;;;;;;;;4988712;28;20497;-68
2021/06/23 09:10:54;;;;;;;14.88;3.00;;;;;;;;;;5070795;28;20471;-67
2021/06/23 09:13:21;;;;;;;20.42;3.40;;;;;;;;;;5090998;28;20554;-67
2021/06/23 09:15:49;;;;;;;9.77;2.63;;;;;;;;;;4979801;28;20118;-68
2021/06/23 09:18:19;;;;;;;11.20;2.40;;;;;;;;;;5051922;28;20100;-68
2021/06/23 09:20:46;;;;;;;9.55;2.00;;;;;;;;;;4996418;28;20022;-69
2021/06/23 09:23:13;;;;;;;14.93;2.58;;;;;;;;;;4988484;28;20091;-68
2021/06/23 09:25:44;;;;;;;11.13;4.03;;;;;;;;;;5082403;28;20028;-67
2021/06/23 09:28:15;;;;;;;11.75;2.17;;;;;;;;;;4985448;28;20074;-67
2021/06/23 09:30:42;;;;;;;11.35;2.50;;;;;;;;;;4999538;28;20057;-68
2021/06/23 09:33:09;;;;;;;5.82;2.10;;;;;;;;;;4990201;28;20026;-68
2021/06/23 09:35:39;;;;;;;11.93;3.03;;;;;;;;;;4988745;28;20138;-69
2021/06/23 09:38:06;;;;;;;12.93;2.42;;;;;;;;;;5013392;28;20024;-69
2021/06/23 09:40:41;;;;;;;11.52;2.65;;;;;;;;;;5019829;28;20449;-68
2021/06/23 09:43:07;;;;;;;18.00;3.05;;;;;;;;;;4987767;28;20026;-69
2021/06/23 09:45:33;;;;;;;9.57;2.50;;;;;;;;;;5008814;28;20119;-70
2021/06/23 09:48:04;;;;;;;7.93;2.20;;;;;;;;;;4999018;28;20060;-68
2021/06/23 09:50:32;;;;;;;11.90;2.00;;;;;;;;;;5043070;28;20074;-69
2021/06/23 09:53:14;;;;;;;19.42;2.65;;;;;;;;;;5067037;28;20079;-68
2021/06/23 09:55:40;;;;;;;14.32;2.40;;;;;;;;;;5010668;28;20512;-69
2021/06/23 09:58:19;;;;;;;9.98;2.13;;;;;;;;;;5042521;28;20493;-70
2021/06/23 10:01:05;;;;;;;12.45;2.88;;;;;;;;;;4994771;28;20022;-68
2021/06/23 10:03:34;;;;;;;13.23;3.13;;;;;;;;;;4991315;28;20517;-67
2021/06/23 10:06:19;;;;;;;8.55;2.15;;;;;;;;;;5037905;28;20051;-69
2021/06/23 10:08:45;;;;;;;14.65;2.20;;;;;;;;;;5042443;28;20030;-69
2021/06/23 10:11:11;;;;;;;13.10;2.47;;;;;;;;;;4987072;28;20041;-68
2021/06/23 10:13:38;;;;;;;12.52;2.20;;;;;;;;;;4990245;28;20030;-67
2021/06/23 10:16:04;;;;;;;9.95;2.00;;;;;;;;;;5037016;28;20036;-69
2021/06/23 10:18:31;;;;;;;11.27;2.45;;;;;;;;;;5094543;28;20118;-67
2021/06/23 10:20:57;;;;;;;9.15;2.25;;;;;;;;;;5091661;28;20023;-68
2021/06/23 10:23:24;;;;;;;10.57;3.75;;;;;;;;;;5030485;28;20091;-67
2021/06/23 10:25:51;;;;;;;9.73;3.17;;;;;;;;;;5000472;28;20069;-68
2021/06/23 10:28:18;;;;;;;20.60;2.88;;;;;;;;;;5008485;28;20052;-67
2021/06/23 10:30:46;;;;;;;10.57;2.95;;;;;;;;;;4989052;28;20127;-69
2021/06/23 10:33:12;;;;;;;10.55;2.42;;;;;;;;;;5092790;28;20237;-68
2021/06/23 10:35:38;;;;;;;11.95;3.10;;;;;;;;;;5083789;28;20040;-67
2021/06/23 10:38:05;;;;;;;12.82;3.28;;;;;;;;;;5041003;28;20028;-68
2021/06/23 10:40:32;;;;;;;13.43;3.30;;;;;;;;;;4988405;28;20067;-68
2021/06/23 10:43:30;;;;;;;10.27;2.50;;;;;;;;;;4990718;28;20027;-68
2021/06/23 10:45:56;;;;;;;15.90;3.03;;;;;;;;;;4985012;28;20036;-68
2021/06/23 10:48:22;;;;;;;10.10;2.75;;;;;;;;;;4991107;28;20050;-68
2021/06/23 10:50:49;;;;;;;10.00;3.10;;;;;;;;;;5078465;28;20028;-69
2021/06/23 10:53:28;;;;;;;10.18;2.45;;;;;;;;;;5001094;28;20263;-66
2021/06/23 10:55:54;;;;;;;14.70;2.75;;;;;;;;;;4996742;28;20102;-67
2021/06/23 10:58:27;;;;;;;16.42;3.17;;;;;;;;;;5002254;28;20030;-67
2021/06/23 11:01:05;;;;;;;10.98;2.65;;;;;;;;;;4973963;28;20146;-68
2021/06/23 11:03:31;;;;;;;10.15;3.20;;;;;;;;;;4983732;28;20049;-68
2021/06/23 11:05:57;;;;;;;13.77;2.90;;;;;;;;;;4985385;28;20071;-70
2021/06/23 11:08:25;;;;;;;9.32;2.80;;;;;;;;;;4976109;28;20018;-69
2021/06/23 11:10:51;;;;;;;11.90;2.85;;;;;;;;;;4969648;28;20030;-67
2021/06/23 11:13:25;;;;;;;8.55;2.47;;;;;;;;;;4982656;28;20570;-68
2021/06/23 11:15:51;;;;;;;11.00;2.97;;;;;;;;;;4979088;28;20053;-68
2021/06/23 11:18:19;;;;;;;12.35;2.55;;;;;;;;;;4976890;28;20026;-75
2021/06/23 11:21:05;;;;;;;14.65;3.47;;;;;;;;;;5056784;28;20051;-68
2021/06/23 11:23:43;;;;;;;12.05;2.88;;;;;;;;;;4997180;28;20044;-68
2021/06/23 11:26:10;;;;;;;7.80;2.45;;;;;;;;;;5037209;28;20028;-68
2021/06/23 11:28:37;;;;;;;10.90;2.38;;;;;;;;;;5030055;28;20401;-67
2021/06/23 11:31:06;;;;;;;10.60;3.05;;;;;;;;;;4988344;28;20030;-67
2021/06/23 11:33:38;;;;;;;12.05;3.20;;;;;;;;;;5055893;28;20556;-67
2021/06/23 11:36:04;;;;;;;;;;;;;;;;;;5051803;28;20041;-69
2021/06/23 11:38:30;;;;;;;10.73;2.28;;;;;;;;;;5020608;28;20295;-66
2021/06/23 11:40:57;;;;;;;8.75;2.40;;;;;;;;;;5012976;28;20012;-68
2021/06/23 11:43:23;;;;;;;12.40;2.80;;;;;;;;;;4986946;28;20568;-67
2021/06/23 11:45:50;;;;;;;8.18;2.40;;;;;;;;;;4985906;28;20160;-66
2021/06/23 11:48:17;;;;;;;9.52;2.58;;;;;;;;;;4984338;28;20053;-67
2021/06/23 11:50:44;;;;;;;8.70;2.45;;;;;;;;;;4993996;28;20039;-67
2021/06/23 11:53:10;;;;;;;9.63;2.47;;;;;;;;;;4998816;28;20118;-67
2021/06/23 11:55:37;;;;;;;13.15;2.90;;;;;;;;;;5004099;28;20057;-68
2021/06/23 11:58:03;;;;;;;10.88;3.55;;;;;;;;;;4985401;28;20031;-66
2021/06/23 12:00:30;;;;;;;11.27;2.70;;;;;;;;;;4972664;28;20320;-66
2021/06/23 12:02:58;;;;;;;7.90;2.50;;;;;;;;;;5033161;28;20399;-67
2021/06/23 12:05:24;;;;;;;11.48;2.58;;;;;;;;;;5035842;28;20099;-67
2021/06/23 12:07:52;;;;;;;17.15;3.25;;;;;;;;;;5017341;28;20035;-68
2021/06/23 12:10:19;;;;;;;9.80;2.42;;;;;;;;;;5011894;28;20026;-68
2021/06/23 12:12:47;;;;;;;11.70;2.53;;;;;;;;;;4992102;28;20084;-67
2021/06/23 12:15:13;;;;;;;10.95;2.30;;;;;;;;;;5029132;28;20030;-67
2021/06/23 12:17:39;;;;;;;11.25;2.40;;;;;;;;;;5071935;28;20035;-67
2021/06/23 12:20:07;;;;;;;18.45;2.70;;;;;;;;;;5068351;28;20028;-68
2021/06/23 12:22:33;;;;;;;10.90;2.80;;;;;;;;;;5020804;28;20033;-69
2021/06/23 12:24:59;;;;;;;7.22;2.40;;;;;;;;;;5023093;28;20117;-68
2021/06/23 12:27:25;;;;;;;11.25;2.70;;;;;;;;;;4992048;28;20043;-69
2021/06/23 12:29:51;;;;;;;9.88;2.95;;;;;;;;;;4994389;28;20534;-69
2021/06/23 12:32:17;;;;;;;9.52;2.80;;;;;;;;;;4992601;28;20060;-68
2021/06/23 12:34:44;;;;;;;12.13;2.58;;;;;;;;;;5041044;28;20031;-69
2021/06/23 12:37:10;;;;;;;8.52;2.42;;;;;;;;;;4983635;28;20075;-69
2021/06/23 12:39:36;;;;;;;10.15;2.35;;;;;;;;;;5002106;28;20131;-69
2021/06/23 12:42:02;;;;;;;9.13;2.25;;;;;;;;;;4996080;28;20030;-68
2021/06/23 12:44:28;;;;;;;10.60;2.90;;;;;;;;;;5032947;28;20041;-68
2021/06/23 12:46:55;;;;;;;11.10;2.13;;;;;;;;;;5059166;28;20031;-68
2021/06/23 12:49:21;;;;;;;9.73;2.15;;;;;;;;;;5005473;28;20027;-68
2021/06/23 12:51:47;;;;;;;10.18;2.47;;;;;;;;;;5054854;28;20080;-67
2021/06/23 12:54:13;;;;;;;9.57;2.38;;;;;;;;;;5023437;28;20026;-67
2021/06/23 12:56:39;;;;;;;10.63;2.55;;;;;;;;;;4994317;28;20482;-68
2021/06/23 12:59:06;;;;;;;9.88;2.58;;;;;;;;;;4995613;28;20117;-67
2021/06/23 13:01:32;;;;;;;8.82;2.45;;;;;;;;;;5033986;28;20028;-68
2021/06/23 13:03:58;;;;;;;9.52;2.53;;;;;;;;;;5008973;28;20502;-67
2021/06/23 13:06:24;;;;;;;9.77;2.65;;;;;;;;;;5005747;28;20420;-66
2021/06/23 13:08:50;;;;;;;17.77;2.42;;;;;;;;;;4998307;28;20036;-68
2021/06/23 13:11:16;;;;;;;10.55;2.45;;;;;;;;;;5000109;28;20083;-70
2021/06/23 13:13:42;;;;;;;9.30;3.10;;;;;;;;;;4991865;28;20485;-68
2021/06/23 13:16:14;;;;;;;11.23;2.15;;;;;;;;;;4979283;28;20080;-67
2021/06/23 13:18:40;;;;;;;7.85;2.10;;;;;;;;;;4985505;28;20109;-68
2021/06/23 13:21:06;;;;;;;9.02;2.47;;;;;;;;;;4979249;28;20026;-68
2021/06/23 13:23:32;;;;;;;11.95;2.88;;;;;;;;;;4986765;28;20109;-67
2021/06/23 13:25:58;;;;;;;7.28;2.25;;;;;;;;;;4984894;28;20019;-69
2021/06/23 13:28:26;;;;;;;6.47;1.77;;;;;;;;;;4986134;28;20033;-67
2021/06/23 13:30:52;;;;;;;10.65;2.20;;;;;;;;;;4980362;28;20493;-69
2021/06/23 13:33:18;;;;;;;10.25;2.42;;;;;;;;;;4985016;28;20027;-68
2021/06/23 13:35:44;;;;;;;8.95;2.00;;;;;;;;;;4983964;28;20540;-69
2021/06/23 13:38:10;;;;;;;11.57;2.42;;;;;;;;;;4983276;28;20097;-68
2021/06/23 13:40:36;;;;;;;10.50;2.30;;;;;;;;;;4979998;28;20501;-67
2021/06/23 13:43:02;;;;;;;8.00;1.85;;;;;;;;;;4982670;28;20489;-68
2021/06/23 13:45:28;;;;;;;5.95;1.83;;;;;;;;;;4985714;28;20034;-68
2021/06/23 13:47:54;;;;;;;9.15;2.55;;;;;;;;;;4995789;28;20037;-68
2021/06/23 13:50:20;;;;;;;8.77;1.90;;;;;;;;;;4981135;28;20069;-68
2021/06/23 13:52:47;;;;;;;9.57;3.13;;;;;;;;;;4991875;28;20030;-68
2021/06/23 13:55:23;;;;;;;6.43;1.92;;;;;;;;;;4982953;28;20034;-69
2021/06/23 13:57:49;;;;;;;9.18;2.33;;;;;;;;;;4980681;28;20014;-68
2021/06/23 14:00:15;;;;;;;9.65;2.47;;;;;;;;;;4993474;28;20105;-69
2021/06/23 14:02:41;;;;;;;13.57;2.38;;;;;;;;;;4987995;28;20034;-69
2021/06/23 14:05:07;;;;;;;8.38;2.17;;;;;;;;;;4984118;28;20037;-66
2021/06/23 14:07:33;;;;;;;10.93;2.42;;;;;;;;;;4987866;28;20034;-68
2021/06/23 14:10:00;;;;;;;9.32;1.98;;;;;;;;;;4980109;28;20058;-68
2021/06/23 14:12:26;;;;;;;12.52;2.40;;;;;;;;;;4988164;28;20026;-67
2021/06/23 14:14:52;;;;;;;12.23;2.22;;;;;;;;;;4976676;28;20026;-70
2021/06/23 14:17:18;;;;;;;10.85;2.42;;;;;;;;;;4988179;28;20039;-69
2021/06/23 14:19:44;;;;;;;11.68;2.25;;;;;;;;;;4976770;28;20055;-69
2021/06/23 14:22:10;;;;;;;9.23;2.58;;;;;;;;;;4992772;28;20026;-67
2021/06/23 14:24:38;;;;;;;11.63;3.17;;;;;;;;;;4986440;28;20039;-68
2021/06/23 14:27:04;;;;;;;4.75;1.90;;;;;;;;;;4981947;28;20124;-68
2021/06/23 14:29:30;;;;;;;13.25;2.78;;;;;;;;;;4987410;28;20031;-67
2021/06/23 14:31:56;;;;;;;7.30;1.98;;;;;;;;;;5000826;28;20037;-67
2021/06/23 14:34:22;;;;;;;8.73;1.83;;;;;;;;;;4981085;28;20019;-70
2021/06/23 14:36:48;;;;;;;6.47;1.85;;;;;;;;;;4987631;28;20528;-67
2021/06/23 14:39:15;;;;;;;11.98;2.47;;;;;;;;;;4987871;28;20065;-67
2021/06/23 14:41:42;;;;;;;7.70;1.80;;;;;;;;;;4986401;28;20095;-68
2021/06/23 14:44:08;;;;;;;9.48;1.70;;;;;;;;;;4992078;28;20060;-69
2021/06/23 14:46:35;;;;;;;8.95;2.28;;;;;;;;;;4994215;28;20101;-67
2021/06/23 14:49:02;;;;;;;7.90;2.28;;;;;;;;;;4988485;28;20122;-68
2021/06/23 14:51:28;;;;;;;8.10;2.42;;;;;;;;;;4977448;28;20035;-69
2021/06/23 14:53:54;;;;;;;10.65;2.20;;;;;;;;;;4989604;28;20042;-68
2021/06/23 14:56:20;;;;;;;11.88;2.05;;;;;;;;;;5010816;28;20030;-68